sensor_id;sensor_type;location;lat;lon;timestamp;pressure;altitude;pressure_sealevel;temperature;humidity
9277;BME280;4676;42.678;23.244;2023-02-20T00:00:15;94426.81;;;9.99;73.57
9277;BME280;4676;42.678;23.244;2023-02-20T00:02:42;94427.69;;;9.98;73.83
9277;BME280;4676;42.678;23.244;2023-02-20T00:05:11;94420.22;;;9.95;74.73
9277;BME280;4676;42.678;23.244;2023-02-20T00:07:38;94419.28;;;9.98;74.58
9277;BME280;4676;42.678;23.244;2023-02-20T00:10:06;94419.47;;;9.92;75.73
9277;BME280;4676;42.678;23.244;2023-02-20T00:12:32;94417.09;;;9.87;76.29
9277;BME280;4676;42.678;23.244;2023-02-20T00:14:59;94409.69;;;9.81;77.24
9277;BME280;4676;42.678;23.244;2023-02-20T00:17:26;94413.75;;;9.85;77.61
9277;BME280;4676;42.678;23.244;2023-02-20T00:19:53;94417.19;;;9.84;77.89
9277;BME280;4676;42.678;23.244;2023-02-20T00:22:21;94407.19;;;9.80;78.46
9277;BME280;4676;42.678;23.244;2023-02-20T00:24:49;94410.81;;;9.73;79.41
9277;BME280;4676;42.678;23.244;2023-02-20T00:27:16;94409.84;;;9.77;80.48
9277;BME280;4676;42.678;23.244;2023-02-20T00:29:43;94409.22;;;9.70;80.63
9277;BME280;4676;42.678;23.244;2023-02-20T00:32:10;94399.44;;;9.60;81.45
9277;BME280;4676;42.678;23.244;2023-02-20T00:34:37;94355.09;;;9.22;82.60
9277;BME280;4676;42.678;23.244;2023-02-20T00:37:04;94397.91;;;9.54;83.19
9277;BME280;4676;42.678;23.244;2023-02-20T00:39:32;94397.34;;;9.44;84.08
9277;BME280;4676;42.678;23.244;2023-02-20T00:42:00;94378.97;;;9.39;84.00
9277;BME280;4676;42.678;23.244;2023-02-20T00:44:26;94383.22;;;9.39;84.79
9277;BME280;4676;42.678;23.244;2023-02-20T00:46:53;94392.59;;;9.35;84.75
9277;BME280;4676;42.678;23.244;2023-02-20T00:49:20;94396.09;;;9.31;85.24
9277;BME280;4676;42.678;23.244;2023-02-20T00:51:47;94416.41;;;9.28;85.33
9277;BME280;4676;42.678;23.244;2023-02-20T00:54:14;94426.66;;;9.24;85.80
9277;BME280;4676;42.678;23.244;2023-02-20T00:56:42;94412.53;;;9.17;86.39
9277;BME280;4676;42.678;23.244;2023-02-20T00:59:09;94414.31;;;9.15;87.16
9277;BME280;4676;42.678;23.244;2023-02-20T01:01:35;94433.63;;;9.16;87.60
9277;BME280;4676;42.678;23.244;2023-02-20T01:04:02;94440.66;;;9.06;88.20
9277;BME280;4676;42.678;23.244;2023-02-20T01:06:29;94444.94;;;9.04;88.46
9277;BME280;4676;42.678;23.244;2023-02-20T01:08:56;94450.81;;;9.04;88.95
9277;BME280;4676;42.678;23.244;2023-02-20T01:11:23;94454.31;;;9.00;89.41
9277;BME280;4676;42.678;23.244;2023-02-20T01:13:51;94455.00;;;9.06;89.78
9277;BME280;4676;42.678;23.244;2023-02-20T01:16:17;94449.31;;;8.97;91.12
9277;BME280;4676;42.678;23.244;2023-02-20T01:18:48;94444.22;;;9.00;91.56
9277;BME280;4676;42.678;23.244;2023-02-20T01:21:14;94431.38;;;8.77;91.77
9277;BME280;4676;42.678;23.244;2023-02-20T01:23:42;94439.50;;;8.87;92.18
9277;BME280;4676;42.678;23.244;2023-02-20T01:26:08;94451.00;;;8.98;92.18
9277;BME280;4676;42.678;23.244;2023-02-20T01:28:35;94459.09;;;9.10;91.67
9277;BME280;4676;42.678;23.244;2023-02-20T01:31:04;94459.81;;;9.15;91.66
9277;BME280;4676;42.678;23.244;2023-02-20T01:33:30;94459.75;;;9.16;91.56
9277;BME280;4676;42.678;23.244;2023-02-20T01:35:57;94398.59;;;8.74;92.09
9277;BME280;4676;42.678;23.244;2023-02-20T01:38:24;94462.16;;;9.21;91.48
9277;BME280;4676;42.678;23.244;2023-02-20T01:40:50;94477.25;;;9.22;91.97
9277;BME280;4676;42.678;23.244;2023-02-20T01:43:17;94470.59;;;9.20;92.51
9277;BME280;4676;42.678;23.244;2023-02-20T01:45:44;94472.22;;;9.22;93.16
9277;BME280;4676;42.678;23.244;2023-02-20T01:48:20;94484.13;;;9.19;94.03
9277;BME280;4676;42.678;23.244;2023-02-20T01:50:48;94469.94;;;9.15;95.01
9277;BME280;4676;42.678;23.244;2023-02-20T01:53:22;94466.59;;;9.13;96.26
9277;BME280;4676;42.678;23.244;2023-02-20T01:55:53;94486.25;;;9.03;97.75
9277;BME280;4676;42.678;23.244;2023-02-20T01:58:24;94497.22;;;9.02;98.05
9277;BME280;4676;42.678;23.244;2023-02-20T02:00:53;94499.19;;;8.92;99.00
9277;BME280;4676;42.678;23.244;2023-02-20T02:03:25;94503.53;;;8.87;100.00
9277;BME280;4676;42.678;23.244;2023-02-20T02:05:53;94486.09;;;8.78;98.11
9277;BME280;4676;42.678;23.244;2023-02-20T02:08:21;94494.63;;;8.74;97.13
9277;BME280;4676;42.678;23.244;2023-02-20T02:10:52;94490.50;;;8.72;96.77
9277;BME280;4676;42.678;23.244;2023-02-20T02:13:20;94494.06;;;8.63;97.33
9277;BME280;4676;42.678;23.244;2023-02-20T02:15:50;94448.63;;;8.31;95.57
9277;BME280;4676;42.678;23.244;2023-02-20T02:18:29;94481.50;;;8.62;95.79
9277;BME280;4676;42.678;23.244;2023-02-20T02:24:38;94470.94;;;8.47;96.42
9277;BME280;4676;42.678;23.244;2023-02-20T02:27:52;94503.53;;;8.55;97.45
9277;BME280;4676;42.678;23.244;2023-02-20T02:36:48;94508.13;;;8.41;98.10
9277;BME280;4676;42.678;23.244;2023-02-20T02:39:23;94513.38;;;8.33;98.45
9277;BME280;4676;42.678;23.244;2023-02-20T02:41:55;94513.53;;;8.26;98.10
9277;BME280;4676;42.678;23.244;2023-02-20T02:44:29;94518.59;;;8.26;99.00
9277;BME280;4676;42.678;23.244;2023-02-20T02:47:01;94478.72;;;8.04;99.12
9277;BME280;4676;42.678;23.244;2023-02-20T02:49:34;94508.56;;;8.23;99.08
9277;BME280;4676;42.678;23.244;2023-02-20T02:52:05;94502.00;;;8.16;99.31
9277;BME280;4676;42.678;23.244;2023-02-20T02:54:34;94458.19;;;7.83;98.50
9277;BME280;4676;42.678;23.244;2023-02-20T02:57:22;94512.97;;;8.15;99.61
9277;BME280;4676;42.678;23.244;2023-02-20T02:59:50;94523.06;;;8.15;99.80
9277;BME280;4676;42.678;23.244;2023-02-20T03:02:19;94523.06;;;8.13;98.95
9277;BME280;4676;42.678;23.244;2023-02-20T03:04:49;94523.06;;;8.13;98.92
9277;BME280;4676;42.678;23.244;2023-02-20T03:07:19;94519.78;;;8.10;99.20
9277;BME280;4676;42.678;23.244;2023-02-20T03:09:49;94518.19;;;8.07;99.06
9277;BME280;4676;42.678;23.244;2023-02-20T03:12:18;94512.53;;;7.97;98.22
9277;BME280;4676;42.678;23.244;2023-02-20T03:14:48;94515.06;;;7.96;98.02
9277;BME280;4676;42.678;23.244;2023-02-20T03:17:38;94530.22;;;7.96;98.57
9277;BME280;4676;42.678;23.244;2023-02-20T03:20:11;94539.31;;;8.03;97.69
9277;BME280;4676;42.678;23.244;2023-02-20T03:22:44;94541.06;;;7.99;97.47
9277;BME280;4676;42.678;23.244;2023-02-20T03:25:18;94542.06;;;7.92;97.46
9277;BME280;4676;42.678;23.244;2023-02-20T03:27:49;94535.44;;;7.88;97.82
9277;BME280;4676;42.678;23.244;2023-02-20T03:30:20;94540.47;;;7.88;97.65
9277;BME280;4676;42.678;23.244;2023-02-20T03:32:52;94553.97;;;7.87;96.88
9277;BME280;4676;42.678;23.244;2023-02-20T03:35:39;94546.69;;;7.75;97.71
9277;BME280;4676;42.678;23.244;2023-02-20T03:38:28;94545.00;;;7.74;98.07
9277;BME280;4676;42.678;23.244;2023-02-20T03:41:14;94542.53;;;7.73;97.85
9277;BME280;4676;42.678;23.244;2023-02-20T03:44:00;94539.09;;;7.75;97.56
9277;BME280;4676;42.678;23.244;2023-02-20T03:46:31;94555.91;;;7.76;97.30
9277;BME280;4676;42.678;23.244;2023-02-20T03:49:02;94551.66;;;7.78;96.28
9277;BME280;4676;42.678;23.244;2023-02-20T03:51:29;94552.66;;;7.71;97.00
9277;BME280;4676;42.678;23.244;2023-02-20T03:53:58;94533.44;;;7.66;96.77
9277;BME280;4676;42.678;23.244;2023-02-20T03:56:29;94555.28;;;7.67;96.87
9277;BME280;4676;42.678;23.244;2023-02-20T03:59:00;94575.41;;;7.70;97.00
9277;BME280;4676;42.678;23.244;2023-02-20T04:01:31;94572.81;;;7.71;96.24
9277;BME280;4676;42.678;23.244;2023-02-20T04:04:01;94587.09;;;7.74;95.76
9277;BME280;4676;42.678;23.244;2023-02-20T04:06:31;94593.66;;;7.81;94.88
9277;BME280;4676;42.678;23.244;2023-02-20T04:09:03;94602.00;;;7.84;94.22
9277;BME280;4676;42.678;23.244;2023-02-20T04:11:33;94602.72;;;7.89;93.79
9277;BME280;4676;42.678;23.244;2023-02-20T04:14:02;94595.00;;;7.95;92.36
9277;BME280;4676;42.678;23.244;2023-02-20T04:16:33;94591.47;;;8.04;91.28
9277;BME280;4676;42.678;23.244;2023-02-20T04:19:02;94595.66;;;8.03;91.42
9277;BME280;4676;42.678;23.244;2023-02-20T04:21:33;94586.47;;;8.01;91.99
9277;BME280;4676;42.678;23.244;2023-02-20T04:24:06;94589.09;;;7.96;92.75
9277;BME280;4676;42.678;23.244;2023-02-20T04:26:34;94581.56;;;7.95;93.24
9277;BME280;4676;42.678;23.244;2023-02-20T04:29:01;94585.75;;;7.96;93.85
9277;BME280;4676;42.678;23.244;2023-02-20T04:31:28;94603.53;;;7.91;92.61
9277;BME280;4676;42.678;23.244;2023-02-20T04:33:55;94614.56;;;7.86;92.97
9277;BME280;4676;42.678;23.244;2023-02-20T04:36:22;94609.50;;;7.87;92.57
9277;BME280;4676;42.678;23.244;2023-02-20T04:38:49;94618.00;;;7.83;92.61
9277;BME280;4676;42.678;23.244;2023-02-20T04:41:17;94623.09;;;7.80;90.24
9277;BME280;4676;42.678;23.244;2023-02-20T04:43:44;94608.06;;;7.76;88.60
9277;BME280;4676;42.678;23.244;2023-02-20T04:46:11;94605.59;;;7.73;86.98
9277;BME280;4676;42.678;23.244;2023-02-20T04:48:38;94593.88;;;7.70;85.77
9277;BME280;4676;42.678;23.244;2023-02-20T04:51:05;94601.47;;;7.69;86.79
9277;BME280;4676;42.678;23.244;2023-02-20T04:53:31;94550.03;;;7.36;86.02
9277;BME280;4676;42.678;23.244;2023-02-20T04:55:58;94598.19;;;7.65;85.76
9277;BME280;4676;42.678;23.244;2023-02-20T04:58:26;94616.69;;;7.64;84.77
9277;BME280;4676;42.678;23.244;2023-02-20T05:00:53;94610.88;;;7.61;84.46
9277;BME280;4676;42.678;23.244;2023-02-20T05:03:20;94612.72;;;7.54;84.05
9277;BME280;4676;42.678;23.244;2023-02-20T05:05:46;94617.06;;;7.46;82.75
9277;BME280;4676;42.678;23.244;2023-02-20T05:08:13;94619.66;;;7.43;81.10
9277;BME280;4676;42.678;23.244;2023-02-20T05:10:40;94619.72;;;7.40;81.49
9277;BME280;4676;42.678;23.244;2023-02-20T05:13:07;94624.88;;;7.34;80.83
9277;BME280;4676;42.678;23.244;2023-02-20T05:15:35;94634.97;;;7.32;80.36
9277;BME280;4676;42.678;23.244;2023-02-20T05:18:02;94632.66;;;7.22;81.64
9277;BME280;4676;42.678;23.244;2023-02-20T05:20:28;94632.66;;;7.23;81.81
9277;BME280;4676;42.678;23.244;2023-02-20T05:23:15;94638.53;;;7.22;82.06
9277;BME280;4676;42.678;23.244;2023-02-20T05:25:42;94641.94;;;7.21;81.73
9277;BME280;4676;42.678;23.244;2023-02-20T05:28:08;94641.94;;;7.21;82.54
9277;BME280;4676;42.678;23.244;2023-02-20T05:30:36;94645.38;;;7.17;83.63
9277;BME280;4676;42.678;23.244;2023-02-20T05:33:03;94651.25;;;7.18;85.49
9277;BME280;4676;42.678;23.244;2023-02-20T05:35:30;94672.19;;;7.20;86.26
9277;BME280;4676;42.678;23.244;2023-02-20T05:37:57;94667.16;;;7.21;86.82
9277;BME280;4676;42.678;23.244;2023-02-20T05:40:24;94671.34;;;7.21;87.87
9277;BME280;4676;42.678;23.244;2023-02-20T05:42:50;94670.47;;;7.22;87.52
9277;BME280;4676;42.678;23.244;2023-02-20T05:45:17;94666.22;;;7.25;87.28
9277;BME280;4676;42.678;23.244;2023-02-20T05:47:45;94667.09;;;7.24;87.28
9277;BME280;4676;42.678;23.244;2023-02-20T05:50:12;94667.81;;;7.31;87.65
9277;BME280;4676;42.678;23.244;2023-02-20T05:52:39;94669.22;;;7.44;86.50
9277;BME280;4676;42.678;23.244;2023-02-20T05:55:07;94669.25;;;7.42;85.75
9277;BME280;4676;42.678;23.244;2023-02-20T05:57:34;94671.63;;;7.50;85.72
9277;BME280;4676;42.678;23.244;2023-02-20T06:00:01;94623.09;;;7.39;85.00
9277;BME280;4676;42.678;23.244;2023-02-20T06:02:30;94670.56;;;7.62;83.22
9277;BME280;4676;42.678;23.244;2023-02-20T06:04:59;94672.03;;;7.73;80.13
9277;BME280;4676;42.678;23.244;2023-02-20T06:07:26;94671.81;;;7.84;77.45
9277;BME280;4676;42.678;23.244;2023-02-20T06:09:52;94671.63;;;7.93;75.59
9277;BME280;4676;42.678;23.244;2023-02-20T06:12:19;94684.97;;;7.98;74.67
9277;BME280;4676;42.678;23.244;2023-02-20T06:14:46;94682.34;;;8.02;75.22
9277;BME280;4676;42.678;23.244;2023-02-20T06:17:12;94686.53;;;8.05;76.12
9277;BME280;4676;42.678;23.244;2023-02-20T06:19:39;94685.53;;;8.12;75.35
9277;BME280;4676;42.678;23.244;2023-02-20T06:22:08;94692.81;;;8.26;74.44
9277;BME280;4676;42.678;23.244;2023-02-20T06:24:34;94676.63;;;8.34;73.86
9277;BME280;4676;42.678;23.244;2023-02-20T06:27:01;94688.19;;;8.44;73.26
9277;BME280;4676;42.678;23.244;2023-02-20T06:29:28;94689.53;;;8.61;71.05
9277;BME280;4676;42.678;23.244;2023-02-20T06:31:57;94691.94;;;8.65;68.85
9277;BME280;4676;42.678;23.244;2023-02-20T06:34:24;94697.63;;;8.75;69.01
9277;BME280;4676;42.678;23.244;2023-02-20T06:36:55;94712.63;;;8.81;68.69
9277;BME280;4676;42.678;23.244;2023-02-20T06:39:23;94711.00;;;8.78;67.20
9277;BME280;4676;42.678;23.244;2023-02-20T06:41:50;94727.25;;;8.68;67.51
9277;BME280;4676;42.678;23.244;2023-02-20T06:44:17;94721.44;;;8.65;67.57
9277;BME280;4676;42.678;23.244;2023-02-20T06:46:43;94726.59;;;8.60;67.52
9277;BME280;4676;42.678;23.244;2023-02-20T06:49:10;94727.91;;;8.38;67.20
9277;BME280;4676;42.678;23.244;2023-02-20T06:51:37;94718.78;;;8.32;68.31
9277;BME280;4676;42.678;23.244;2023-02-20T06:54:05;94718.69;;;8.37;69.85
9277;BME280;4676;42.678;23.244;2023-02-20T06:56:34;94724.59;;;8.36;68.39
9277;BME280;4676;42.678;23.244;2023-02-20T06:59:02;94727.25;;;8.30;68.28
9277;BME280;4676;42.678;23.244;2023-02-20T07:01:37;94722.16;;;8.31;67.45
9277;BME280;4676;42.678;23.244;2023-02-20T07:04:05;94723.63;;;8.41;67.32
9277;BME280;4676;42.678;23.244;2023-02-20T07:06:32;94731.34;;;8.35;66.36
9277;BME280;4676;42.678;23.244;2023-02-20T07:08:59;94738.69;;;8.44;66.69
9277;BME280;4676;42.678;23.244;2023-02-20T07:11:26;94728.38;;;8.55;65.15
9277;BME280;4676;42.678;23.244;2023-02-20T07:13:54;94754.59;;;8.49;63.04
9277;BME280;4676;42.678;23.244;2023-02-20T07:16:22;94750.94;;;8.63;62.39
9277;BME280;4676;42.678;23.244;2023-02-20T07:18:49;94755.81;;;8.70;60.98
9277;BME280;4676;42.678;23.244;2023-02-20T07:21:15;94756.81;;;8.63;61.20
9277;BME280;4676;42.678;23.244;2023-02-20T07:23:43;94755.72;;;8.75;60.66
9277;BME280;4676;42.678;23.244;2023-02-20T07:26:17;94766.78;;;8.69;59.91
9277;BME280;4676;42.678;23.244;2023-02-20T07:28:44;94760.25;;;8.61;59.40
9277;BME280;4676;42.678;23.244;2023-02-20T07:31:12;94751.16;;;8.52;60.71
9277;BME280;4676;42.678;23.244;2023-02-20T07:33:39;94756.22;;;8.52;60.11
9277;BME280;4676;42.678;23.244;2023-02-20T07:36:08;94759.63;;;8.51;59.79
9277;BME280;4676;42.678;23.244;2023-02-20T07:38:34;94755.22;;;8.61;59.02
9277;BME280;4676;42.678;23.244;2023-02-20T07:41:01;94765.25;;;8.62;58.46
9277;BME280;4676;42.678;23.244;2023-02-20T07:43:28;94755.22;;;8.59;58.30
9277;BME280;4676;42.678;23.244;2023-02-20T07:45:55;94730.97;;;8.52;58.09
9277;BME280;4676;42.678;23.244;2023-02-20T07:48:23;94750.19;;;8.59;58.39
9277;BME280;4676;42.678;23.244;2023-02-20T07:50:50;94758.69;;;8.55;58.25
9277;BME280;4676;42.678;23.244;2023-02-20T07:53:18;94767.97;;;8.55;59.02
9277;BME280;4676;42.678;23.244;2023-02-20T07:55:45;94763.56;;;8.64;58.41
9277;BME280;4676;42.678;23.244;2023-02-20T07:58:12;94767.75;;;8.65;58.43
9277;BME280;4676;42.678;23.244;2023-02-20T08:00:38;94776.81;;;8.74;57.60
9277;BME280;4676;42.678;23.244;2023-02-20T08:03:05;94776.56;;;8.84;57.67
9277;BME280;4676;42.678;23.244;2023-02-20T08:05:33;94778.16;;;8.90;56.77
9277;BME280;4676;42.678;23.244;2023-02-20T08:08:00;94791.78;;;8.83;56.14
9277;BME280;4676;42.678;23.244;2023-02-20T08:10:28;94790.03;;;8.86;55.92
9277;BME280;4676;42.678;23.244;2023-02-20T08:12:55;94779.78;;;8.91;56.86
9277;BME280;4676;42.678;23.244;2023-02-20T08:15:22;94788.94;;;8.96;55.69
9277;BME280;4676;42.678;23.244;2023-02-20T08:17:49;94789.72;;;9.00;56.61
9277;BME280;4676;42.678;23.244;2023-02-20T08:20:17;94793.69;;;9.10;55.99
9277;BME280;4676;42.678;23.244;2023-02-20T08:22:47;94784.75;;;8.94;55.69
9277;BME280;4676;42.678;23.244;2023-02-20T08:25:15;94815.94;;;8.94;56.68
9277;BME280;4676;42.678;23.244;2023-02-20T08:27:43;94812.78;;;8.85;56.26
9277;BME280;4676;42.678;23.244;2023-02-20T08:30:11;94800.06;;;8.89;56.82
9277;BME280;4676;42.678;23.244;2023-02-20T08:32:38;94812.72;;;8.88;56.26
9277;BME280;4676;42.678;23.244;2023-02-20T08:35:05;94798.47;;;8.85;56.84
9277;BME280;4676;42.678;23.244;2023-02-20T08:37:32;94790.59;;;8.97;56.70
9277;BME280;4676;42.678;23.244;2023-02-20T08:40:00;94787.88;;;9.05;56.13
9277;BME280;4676;42.678;23.244;2023-02-20T08:42:31;94778.53;;;9.09;55.70
9277;BME280;4676;42.678;23.244;2023-02-20T08:44:58;94791.81;;;9.18;54.93
9277;BME280;4676;42.678;23.244;2023-02-20T08:47:25;94777.84;;;9.02;56.10
9277;BME280;4676;42.678;23.244;2023-02-20T08:49:51;94772.63;;;9.10;56.31
9277;BME280;4676;42.678;23.244;2023-02-20T08:52:18;94775.75;;;9.19;56.17
9277;BME280;4676;42.678;23.244;2023-02-20T08:54:46;94767.06;;;9.29;55.77
9277;BME280;4676;42.678;23.244;2023-02-20T08:57:15;94762.81;;;9.31;54.44
9277;BME280;4676;42.678;23.244;2023-02-20T08:59:42;94768.63;;;9.35;54.42
9277;BME280;4676;42.678;23.244;2023-02-20T09:02:15;94756.34;;;9.21;54.45
9277;BME280;4676;42.678;23.244;2023-02-20T09:04:42;94749.53;;;9.23;54.22
9277;BME280;4676;42.678;23.244;2023-02-20T09:07:08;94745.13;;;9.31;54.13
9277;BME280;4676;42.678;23.244;2023-02-20T09:09:35;94758.88;;;9.53;54.45
9277;BME280;4676;42.678;23.244;2023-02-20T09:12:02;94782.75;;;9.77;54.18
9277;BME280;4676;42.678;23.244;2023-02-20T09:14:30;94750.66;;;9.78;53.20
9277;BME280;4676;42.678;23.244;2023-02-20T09:16:57;94755.97;;;9.69;53.17
9277;BME280;4676;42.678;23.244;2023-02-20T09:19:24;94759.34;;;9.68;53.12
9277;BME280;4676;42.678;23.244;2023-02-20T09:21:51;94783.53;;;9.79;53.87
9277;BME280;4676;42.678;23.244;2023-02-20T09:24:17;94746.56;;;9.74;53.58
9277;BME280;4676;42.678;23.244;2023-02-20T09:26:44;94758.13;;;9.82;53.08
9277;BME280;4676;42.678;23.244;2023-02-20T09:29:11;94751.81;;;9.66;54.07
9277;BME280;4676;42.678;23.244;2023-02-20T09:31:39;94751.66;;;9.72;54.03
9277;BME280;4676;42.678;23.244;2023-02-20T09:34:06;94779.78;;;9.92;54.49
9277;BME280;4676;42.678;23.244;2023-02-20T09:36:32;94746.88;;;9.92;53.57
9277;BME280;4676;42.678;23.244;2023-02-20T09:38:59;94753.53;;;9.96;53.09
9277;BME280;4676;42.678;23.244;2023-02-20T09:41:37;94751.53;;;10.08;52.77
9277;BME280;4676;42.678;23.244;2023-02-20T09:44:11;94732.88;;;10.10;53.38
9277;BME280;4676;42.678;23.244;2023-02-20T09:46:42;94740.53;;;10.39;53.34
9277;BME280;4676;42.678;23.244;2023-02-20T09:49:12;94708.19;;;10.20;52.49
9277;BME280;4676;42.678;23.244;2023-02-20T09:51:42;94754.03;;;10.40;51.98
9277;BME280;4676;42.678;23.244;2023-02-20T09:54:12;94741.44;;;10.37;52.00
9277;BME280;4676;42.678;23.244;2023-02-20T09:56:41;94749.56;;;10.48;51.51
9277;BME280;4676;42.678;23.244;2023-02-20T09:59:14;94753.16;;;10.41;49.85
9277;BME280;4676;42.678;23.244;2023-02-20T10:01:51;94753.06;;;10.44;49.55
9277;BME280;4676;42.678;23.244;2023-02-20T10:04:20;94751.28;;;10.47;49.73
9277;BME280;4676;42.678;23.244;2023-02-20T10:06:50;94767.06;;;10.56;48.74
9277;BME280;4676;42.678;23.244;2023-02-20T10:09:17;94754.47;;;10.54;47.75
9277;BME280;4676;42.678;23.244;2023-02-20T10:11:53;94745.09;;;10.56;47.72
9277;BME280;4676;42.678;23.244;2023-02-20T10:14:41;94752.16;;;10.74;47.09
9277;BME280;4676;42.678;23.244;2023-02-20T10:17:19;94752.06;;;10.77;45.43
9277;BME280;4676;42.678;23.244;2023-02-20T10:19:51;94764.47;;;10.59;45.45
9277;BME280;4676;42.678;23.244;2023-02-20T10:22:22;94756.56;;;10.40;45.46
9277;BME280;4676;42.678;23.244;2023-02-20T10:25:08;94772.63;;;10.68;46.23
9277;BME280;4676;42.678;23.244;2023-02-20T10:27:45;94738.97;;;10.63;44.76
9277;BME280;4676;42.678;23.244;2023-02-20T10:30:19;94743.94;;;10.66;45.12
9277;BME280;4676;42.678;23.244;2023-02-20T10:32:54;94745.94;;;10.84;44.67
9277;BME280;4676;42.678;23.244;2023-02-20T10:35:24;94740.41;;;10.72;45.08
9277;BME280;4676;42.678;23.244;2023-02-20T10:37:55;94743.25;;;10.89;45.23
9277;BME280;4676;42.678;23.244;2023-02-20T10:40:26;94731.84;;;10.76;45.15
9277;BME280;4676;42.678;23.244;2023-02-20T10:43:01;94721.69;;;10.76;44.05
9277;BME280;4676;42.678;23.244;2023-02-20T10:45:36;94721.25;;;10.89;45.97
9277;BME280;4676;42.678;23.244;2023-02-20T10:48:08;94702.59;;;11.18;45.13
9277;BME280;4676;42.678;23.244;2023-02-20T10:50:44;94722.94;;;11.17;44.67
9277;BME280;4676;42.678;23.244;2023-02-20T10:53:20;94699.38;;;11.13;46.62
9277;BME280;4676;42.678;23.244;2023-02-20T10:55:55;94700.81;;;11.20;45.40
9277;BME280;4676;42.678;23.244;2023-02-20T10:58:29;94694.66;;;11.27;46.27
9277;BME280;4676;42.678;23.244;2023-02-20T11:01:00;94694.41;;;11.35;46.35
9277;BME280;4676;42.678;23.244;2023-02-20T11:03:35;94706.88;;;11.16;45.89
9277;BME280;4676;42.678;23.244;2023-02-20T11:06:05;94704.88;;;11.26;46.82
9277;BME280;4676;42.678;23.244;2023-02-20T11:08:34;94701.66;;;11.45;46.56
9277;BME280;4676;42.678;23.244;2023-02-20T11:11:18;94698.22;;;11.73;45.89
9277;BME280;4676;42.678;23.244;2023-02-20T11:13:46;94695.44;;;11.79;45.88
9277;BME280;4676;42.678;23.244;2023-02-20T11:16:20;94694.69;;;11.77;45.34
9277;BME280;4676;42.678;23.244;2023-02-20T11:18:52;94696.28;;;11.79;45.33
9277;BME280;4676;42.678;23.244;2023-02-20T11:21:37;94712.47;;;11.77;44.54
9277;BME280;4676;42.678;23.244;2023-02-20T11:24:32;94717.25;;;11.60;45.75
9277;BME280;4676;42.678;23.244;2023-02-20T11:27:05;94714.78;;;11.83;46.15
9277;BME280;4676;42.678;23.244;2023-02-20T11:29:37;94702.09;;;11.83;46.15
9277;BME280;4676;42.678;23.244;2023-02-20T11:32:22;94723.69;;;11.70;44.95
9277;BME280;4676;42.678;23.244;2023-02-20T11:37:46;94717.50;;;11.52;45.38
9277;BME280;4676;42.678;23.244;2023-02-20T11:40:14;94718.88;;;11.62;45.10
9277;BME280;4676;42.678;23.244;2023-02-20T11:42:43;94694.56;;;11.55;45.28
9277;BME280;4676;42.678;23.244;2023-02-20T11:45:14;94692.91;;;11.54;45.61
9277;BME280;4676;42.678;23.244;2023-02-20T11:47:41;94703.84;;;11.56;46.42
9277;BME280;4676;42.678;23.244;2023-02-20T11:50:15;94712.75;;;11.43;44.94
9277;BME280;4676;42.678;23.244;2023-02-20T11:53:00;94689.63;;;11.50;45.09
9277;BME280;4676;42.678;23.244;2023-02-20T11:55:29;94683.22;;;11.65;44.61
9277;BME280;4676;42.678;23.244;2023-02-20T11:57:56;94683.94;;;11.69;44.45
9277;BME280;4676;42.678;23.244;2023-02-20T12:00:24;94682.72;;;11.56;44.71
9277;BME280;4676;42.678;23.244;2023-02-20T12:02:54;94676.75;;;11.57;44.46
9277;BME280;4676;42.678;23.244;2023-02-20T12:05:36;94682.66;;;11.57;44.13
9277;BME280;4676;42.678;23.244;2023-02-20T12:08:19;94667.13;;;11.65;45.25
9277;BME280;4676;42.678;23.244;2023-02-20T12:10:52;94667.59;;;11.52;43.69
9277;BME280;4676;42.678;23.244;2023-02-20T12:13:20;94664.56;;;11.66;43.90
9277;BME280;4676;42.678;23.244;2023-02-20T12:15:51;94666.53;;;11.83;43.70
9277;BME280;4676;42.678;23.244;2023-02-20T12:18:39;94670.13;;;11.77;43.58
9277;BME280;4676;42.678;23.244;2023-02-20T12:21:16;94685.28;;;11.79;44.79
9277;BME280;4676;42.678;23.244;2023-02-20T12:23:55;94684.28;;;11.84;44.24
9277;BME280;4676;42.678;23.244;2023-02-20T12:26:38;94685.84;;;11.87;43.87
9277;BME280;4676;42.678;23.244;2023-02-20T12:29:18;94682.09;;;11.74;44.00
9277;BME280;4676;42.678;23.244;2023-02-20T12:31:59;94683.16;;;11.67;44.89
9277;BME280;4676;42.678;23.244;2023-02-20T12:37:43;94679.41;;;11.78;44.83
9277;BME280;4676;42.678;23.244;2023-02-20T12:40:36;94668.91;;;11.87;44.31
9277;BME280;4676;42.678;23.244;2023-02-20T12:43:17;94682.00;;;11.77;44.32
9277;BME280;4676;42.678;23.244;2023-02-20T12:45:51;94684.91;;;11.65;44.14
9277;BME280;4676;42.678;23.244;2023-02-20T12:48:32;94671.41;;;11.64;44.68
9277;BME280;4676;42.678;23.244;2023-02-20T12:51:13;94680.88;;;11.59;44.69
9277;BME280;4676;42.678;23.244;2023-02-20T12:54:10;94684.16;;;11.63;45.78
9277;BME280;4676;42.678;23.244;2023-02-20T12:56:48;94678.59;;;11.78;44.38
9277;BME280;4676;42.678;23.244;2023-02-20T12:59:25;94678.63;;;11.76;44.47
9277;BME280;4676;42.678;23.244;2023-02-20T13:01:53;94674.56;;;11.95;44.72
9277;BME280;4676;42.678;23.244;2023-02-20T13:04:24;94679.75;;;11.92;44.37
9277;BME280;4676;42.678;23.244;2023-02-20T13:07:01;94686.44;;;11.95;44.43
9277;BME280;4676;42.678;23.244;2023-02-20T13:09:32;94681.66;;;11.86;44.42
9277;BME280;4676;42.678;23.244;2023-02-20T13:12:03;94679.03;;;11.89;44.37
9277;BME280;4676;42.678;23.244;2023-02-20T13:14:46;94687.38;;;11.92;44.87
9277;BME280;4676;42.678;23.244;2023-02-20T13:17:24;94668.81;;;11.90;44.35
9277;BME280;4676;42.678;23.244;2023-02-20T13:19:56;94677.41;;;11.86;44.27
9277;BME280;4676;42.678;23.244;2023-02-20T13:22:24;94687.91;;;12.00;44.69
9277;BME280;4676;42.678;23.244;2023-02-20T13:24:52;94673.97;;;11.89;44.79
9277;BME280;4676;42.678;23.244;2023-02-20T13:27:30;94668.09;;;11.62;44.75
9277;BME280;4676;42.678;23.244;2023-02-20T13:29:58;94694.84;;;11.72;45.21
9277;BME280;4676;42.678;23.244;2023-02-20T13:32:27;94701.59;;;11.73;45.77
9277;BME280;4676;42.678;23.244;2023-02-20T13:35:33;94690.69;;;11.70;45.38
9277;BME280;4676;42.678;23.244;2023-02-20T13:38:09;94693.22;;;11.70;45.64
9277;BME280;4676;42.678;23.244;2023-02-20T13:40:40;94699.00;;;11.75;44.89
9277;BME280;4676;42.678;23.244;2023-02-20T13:43:27;94702.09;;;11.83;45.28
9277;BME280;4676;42.678;23.244;2023-02-20T13:46:14;94695.53;;;11.77;45.49
9277;BME280;4676;42.678;23.244;2023-02-20T13:48:48;94690.44;;;11.77;45.61
9277;BME280;4676;42.678;23.244;2023-02-20T13:51:34;94709.16;;;11.75;46.32